• Join FlightAware (Why Join?)
  • Login
  • US Flag 
07:47PM EDT


 

Airport Tracker/Info


-or-


 

Live Flight TrackerFlight Track Log ✈ WIG1090 ✈ 12-Jul-2013 ✈ KMHT - KRKD

Flight Track Log - Related Links

Times and Time Zones

All times are in EDT time to prevent confusion due to time zone crossing. See the WIG1090 flight status page for this flight to view local times or setup timezone preferences in your user account.

Time Position Orientation Groundspeed Altitude Reporting Facility
EDT Latitude Longitude Course Direction KTS MPH feet Rate Location/Type
07:19AM 42.9500 -71.4167 90° East 110 127 1,000  Level KA90
07:20AM 42.9500 -71.3833 90° East 104 120 2,500 1,500 Climbing KA90
07:21AM 42.9667 -71.3500 56° Northeast 110 127 4,000 1,140 Climbing KA90
07:22AM 42.9833 -71.3167 56° Northeast 135 155 4,900 480 Climbing KA90
07:23AM 43.0000 -71.2667 65° Northeast 172 198 5,000 300 Climbing KA90
07:24AM 43.0333 -71.2000 56° Northeast 179 206 5,500 720 Climbing KA90
07:25AM 43.0667 -71.1500 48° Northeast 175 201 6,500 720 Climbing KA90
07:26AM 43.1000 -71.1000 48° Northeast 170 196 7,000 180 Climbing KA90
07:27AM 43.1333 -71.0167 61° Northeast 201 231 7,000 360 Level KA90
07:28AM 43.1667 -70.9500 56° Northeast 194 223 7,800 600 Climbing KA90
07:29AM 43.1833 -70.9167 56° Northeast 186 214 8,100 360 Climbing KA90
07:31AM 43.2173 -70.8490 55° Northeast  Level FlightAware Approximate
07:38AM 43.3518 -70.5768 56° Northeast  Level FlightAware Approximate
07:39AM 43.3708 -70.5377 56° Northeast  Level FlightAware Approximate
07:40AM 43.3898 -70.4985 56° Northeast  Level FlightAware Approximate
07:41AM 43.4088 -70.4594 56° Northeast  Level FlightAware Approximate
07:42AM 43.4278 -70.4202 56° Northeast  Level FlightAware Approximate
07:43AM 43.4467 -70.3809 56° Northeast  Level FlightAware Approximate
07:44AM 43.4657 -70.3417 56° Northeast  Level FlightAware Approximate
07:45AM 43.4846 -70.3024 56° Northeast  Level FlightAware Approximate
07:46AM 43.5035 -70.2631 56° Northeast  Level FlightAware Approximate
07:47AM 43.5224 -70.2237 56° Northeast  Level FlightAware Approximate
07:48AM 43.5413 -70.1844 56° Northeast  Level FlightAware Approximate
07:49AM 43.5601 -70.1450 57° Northeast  Level FlightAware Approximate
07:50AM 43.5790 -70.1056 57° Northeast  Level FlightAware Approximate
07:51AM 43.5978 -70.0662 57° Northeast  Level FlightAware Approximate
07:52AM 43.6167 -70.0267 57° Northeast  Level FlightAware Approximate
07:53AM 43.6355 -69.9872 57° Northeast  Level FlightAware Approximate
07:54AM 43.6543 -69.9477 57° Northeast  Level FlightAware Approximate
07:55AM 43.6731 -69.9082 57° Northeast  Level FlightAware Approximate
07:56AM 43.6919 -69.8686 57° Northeast  Level FlightAware Approximate
07:57AM 43.7106 -69.8291 57° Northeast  Level FlightAware Approximate
07:58AM 43.7294 -69.7895 57° Northeast  Level FlightAware Approximate
07:59AM 43.7481 -69.7498 57° Northeast  Level FlightAware Approximate
08:00AM 43.7668 -69.7102 57° Northeast  Level FlightAware Approximate
08:01AM 43.7855 -69.6705 57° Northeast  Level FlightAware Approximate
08:02AM 43.8042 -69.6308 57° Northeast  Level FlightAware Approximate
08:03AM 43.8229 -69.5911 57° Northeast  Level FlightAware Approximate
08:04AM 43.8416 -69.5513 57° Northeast  Level FlightAware Approximate
08:05AM 43.8607 -69.5120 55° Northeast  Level FlightAware Approximate
08:06AM 43.8802 -69.4730 55° Northeast  Level FlightAware Approximate
08:07AM 43.8997 -69.4339 55° Northeast  Level FlightAware Approximate
08:08AM 43.9142 -69.3909 65° Northeast  Level FlightAware Approximate
08:09AM 43.9285 -69.3478 65° Northeast  Level FlightAware Approximate
08:10AM 43.9513 -69.3141 55° Northeast  Level FlightAware Approximate
08:11AM 43.9697 -69.2742 65° Northeast  Level FlightAware Approximate
08:12AM 43.9841 -69.2311 65° Northeast  Level FlightAware Approximate
08:13AM 43.9985 -69.1880 65° Northeast  Level FlightAware Approximate
08:14AM 44.0174 -69.1485 55° Northeast  Level FlightAware Approximate
08:15AM 44.0370 -69.1094 55° Northeast  Level FlightAware Approximate
08:16AM 44.0500 -69.0833 55° Northeast  Level FlightAware Approximate
08:17AM 44.0601 -69.0993 55° Northeast  Level Estimated
08:18AM 44.0601 -69.0993 55° Northeast  Level Estimated
08:19AM 44.0601 -69.0993 55° Northeast  Level Estimated
08:20AM 44.0601 -69.0993 55° Northeast  Level Estimated
08:21AM 44.0601 -69.0993 55° Northeast  Level Estimated
08:22AM 44.0601 -69.0993 55° Northeast  Level Estimated
08:23AM 44.0601 -69.0993 55° Northeast  Level Estimated
08:24AM 44.0601 -69.0993 55° Northeast  Level Estimated
08:25AM 44.0601 -69.0993 55° Northeast  Level Estimated
08:26AM 44.0601 -69.0993 55° Northeast  Level Estimated
08:27AM 44.0601 -69.0993 55° Northeast  Level Estimated
08:28AM 44.0601 -69.0993 55° Northeast  Level Estimated
08:29AM 44.0601 -69.0993 55° Northeast  Level Estimated
08:30AM 44.0601 -69.0993 55° Northeast  Level Estimated
08:31AM 44.0601 -69.0993 55° Northeast  Level Estimated
08:32AM 44.0601 -69.0993 55° Northeast  Level Estimated
08:33AM 44.0601 -69.0993 55° Northeast  Level Estimated
08:34AM 44.0601 -69.0993 55° Northeast  Level Estimated
08:35AM 44.0601 -69.0993 55° Northeast  Level Estimated